Time;durP1;ratioP1;P1;durP2;ratioP2;P2;SDS_P1;SDS_P2;PMS_P1;PMS_P2;Temp;Humidity;BMP_temperature;BMP_pressure;BME280_temperature;BME280_humidity;BME280_pressure;Samples;Min_cycle;Max_cycle;Signal;HPM_P1;HPM_P2
2021/12/11 00:02:09;;;;;;;28.65;15.95;;;2.00;77.40;;;0.96;64.47;93546.56;5052877;28;20552;-80
2021/12/11 00:04:42;;;;;;;30.85;16.20;;;2.00;77.50;;;0.95;64.31;93540.59;5054040;28;20216;-80
2021/12/11 00:07:16;;;;;;;29.45;15.60;;;2.00;77.40;;;0.95;64.76;93540.59;5052270;28;20299;-79
2021/12/11 00:09:56;;;;;;;27.33;15.05;;;2.00;77.50;;;0.95;64.67;93543.19;5048339;28;20706;-80
2021/12/11 00:12:33;;;;;;;31.70;16.02;;;2.10;77.60;;;0.95;64.34;93550.94;5069563;28;20278;-80
2021/12/11 00:15:36;;;;;;;28.73;14.88;;;2.00;77.50;;;0.95;64.44;93557.84;5069272;28;20760;-80
2021/12/11 00:18:11;;;;;;;23.95;12.52;;;2.00;77.50;;;0.95;64.50;93556.09;5045877;28;20204;-80
2021/12/11 00:20:50;;;;;;;23.33;12.57;;;2.00;77.40;;;0.93;64.36;93552.88;5037192;28;20265;-80
2021/12/11 00:23:34;;;;;;;20.33;11.65;;;2.00;77.40;;;0.94;64.51;93561.41;5039731;28;20232;-80
2021/12/11 00:26:02;;;;;;;20.35;12.00;;;2.00;77.40;;;0.91;64.39;93559.16;5069230;28;20176;-80
2021/12/11 00:28:30;;;;;;;22.27;12.38;;;2.00;77.30;;;0.90;64.22;93563.50;5051056;28;20226;-80
2021/12/11 00:30:59;;;;;;;18.85;10.60;;;2.00;77.30;;;0.89;64.50;93571.44;5055731;28;20250;-81
2021/12/11 00:33:32;;;;;;;17.80;10.48;;;2.00;77.30;;;0.87;64.21;93571.59;5056101;28;20276;-80
2021/12/11 00:36:10;;;;;;;18.55;11.07;;;2.00;77.30;;;0.78;64.19;93572.59;5055264;28;20192;-80
2021/12/11 00:38:39;;;;;;;19.23;10.38;;;2.00;77.30;;;0.83;64.50;93574.66;5055983;28;20219;-81
2021/12/11 00:41:12;;;;;;;20.10;11.00;;;2.00;77.30;;;0.83;64.12;93585.00;5055922;28;20253;-80
2021/12/11 00:43:41;;;;;;;19.65;11.35;;;2.00;77.40;;;0.87;64.32;93591.47;5051943;28;20275;-80
2021/12/11 00:46:14;;;;;;;19.08;10.55;;;2.00;77.40;;;0.87;64.32;93594.03;5071982;28;20230;-81
2021/12/11 00:48:43;;;;;;;19.92;11.13;;;1.90;77.30;;;0.85;64.49;93601.94;5071941;28;20225;-80
2021/12/11 00:51:22;;;;;;;22.30;11.73;;;2.00;77.40;;;0.84;64.50;93600.31;5039170;28;20227;-80
2021/12/11 00:53:57;;;;;;;20.13;12.07;;;1.90;77.40;;;0.85;64.17;93603.72;5038929;28;20211;-80
2021/12/11 00:56:34;;;;;;;21.80;12.30;;;1.90;77.30;;;0.83;64.12;93614.22;5071875;28;20677;-80
2021/12/11 00:59:08;;;;;;;22.30;12.02;;;1.90;77.30;;;0.81;64.30;93610.97;5051239;28;20228;-80
2021/12/11 01:01:52;;;;;;;22.98;12.38;;;1.90;77.30;;;0.80;64.33;93617.09;5035480;28;20241;-79
2021/12/11 01:04:41;;;;;;;22.30;11.98;;;1.90;77.30;;;0.78;64.22;93626.78;5071424;28;20313;-81
2021/12/11 01:07:19;;;;;;;21.85;12.57;;;1.90;77.60;;;0.79;64.45;93631.81;5038740;28;20218;-81
2021/12/11 01:10:21;;;;;;;20.42;10.90;;;1.90;77.30;;;0.80;64.25;93640.34;5072245;28;20218;-80
2021/12/11 01:13:01;;;;;;;19.15;10.45;;;1.90;77.40;;;0.79;64.30;93642.13;5055637;28;20277;-81
2021/12/11 01:15:39;;;;;;;19.95;11.30;;;1.90;77.30;;;0.78;64.21;93648.25;5088980;28;20215;-80
2021/12/11 01:21:03;;;;;;;19.17;10.30;;;1.90;77.20;;;0.71;64.32;93651.63;5071735;28;20696;-80
2021/12/11 01:26:11;;;;;;;18.38;10.18;;;1.90;77.20;;;0.69;64.46;93658.75;5054412;28;20238;-81
2021/12/11 01:28:39;;;;;;;20.42;11.13;;;1.80;77.20;;;0.70;64.29;93662.94;5086842;28;20281;-79
2021/12/11 01:31:12;;;;;;;21.27;11.52;;;1.80;77.20;;;0.70;64.50;93668.09;5054728;28;20559;-81
2021/12/11 01:33:39;;;;;;;20.60;11.88;;;1.80;77.20;;;0.69;64.39;93669.06;5054742;28;20198;-79
2021/12/11 01:36:08;;;;;;;20.95;12.18;;;1.80;77.20;;;0.64;64.57;93657.44;5053623;28;20711;-80
2021/12/11 01:38:36;;;;;;;20.58;12.40;;;1.80;77.30;;;0.68;64.08;93668.25;5051057;28;20216;-80
2021/12/11 01:41:10;;;;;;;21.10;11.77;;;1.80;77.30;;;0.68;64.62;93677.78;5049557;28;20190;-81
2021/12/11 01:43:40;;;;;;;22.25;12.73;;;1.80;77.30;;;0.70;64.19;93681.00;5071276;28;20221;-79
2021/12/11 01:46:09;;;;;;;22.20;12.05;;;1.80;77.40;;;0.71;64.47;93675.66;5050782;28;20192;-80
2021/12/11 01:48:48;;;;;;;20.00;11.70;;;1.80;77.30;;;0.69;64.23;93684.53;5045526;28;20642;-79
2021/12/11 01:51:37;;;;;;;18.88;11.30;;;1.80;77.40;;;0.68;64.27;93681.16;5051206;28;20220;-80
2021/12/11 01:54:21;;;;;;;23.13;12.15;;;1.80;77.30;;;0.64;64.22;93680.66;5051266;28;20231;-80
2021/12/11 01:56:59;;;;;;;20.67;11.88;;;1.80;77.30;;;0.64;64.35;93682.44;5047163;28;20187;-80
2021/12/11 01:59:36;;;;;;;20.80;11.02;;;1.80;77.30;;;0.62;64.16;93680.03;5088586;28;20223;-80
2021/12/11 02:02:15;;;;;;;20.85;11.70;;;1.80;77.30;;;0.63;64.23;93691.16;5054688;28;20653;-80
2021/12/11 02:04:47;;;;;;;21.60;11.90;;;1.80;77.20;;;0.59;64.34;93693.25;5087746;28;20221;-80
2021/12/11 02:07:29;;;;;;;16.92;9.75;;;1.70;77.20;;;0.55;64.10;93684.22;5037412;28;20227;-80
2021/12/11 02:09:59;;;;;;;19.65;10.52;;;1.70;77.10;;;0.53;64.10;93683.56;5054021;28;20211;-80
2021/12/11 02:12:43;;;;;;;19.30;9.70;;;1.70;77.10;;;0.50;64.21;93685.66;5055006;28;20230;-79
2021/12/11 02:15:17;;;;;;;17.27;9.88;;;1.70;77.10;;;0.46;64.30;93692.91;5067559;28;20278;-79
2021/12/11 02:17:52;;;;;;;19.48;9.88;;;1.70;77.10;;;0.46;64.16;93698.06;5082479;28;20204;-80
2021/12/11 02:20:35;;;;;;;19.35;10.35;;;1.60;77.00;;;0.43;64.33;93703.56;5084557;28;20599;-80
2021/12/11 02:23:05;;;;;;;17.70;10.13;;;1.60;77.00;;;0.35;64.55;93699.19;5076693;28;20228;-80
2021/12/11 02:25:43;;;;;;;19.00;10.63;;;1.60;77.00;;;0.43;64.41;93721.63;5079334;28;20237;-79
2021/12/11 02:28:35;;;;;;;20.83;10.68;;;1.60;77.10;;;0.40;64.47;93716.78;5050661;28;20191;-80
2021/12/11 02:31:27;;;;;;;17.27;10.07;;;1.60;77.10;;;0.35;64.46;93709.50;5062568;28;20203;-81
2021/12/11 02:34:12;;;;;;;20.13;10.63;;;1.60;77.10;;;0.38;64.36;93723.84;5056524;28;20245;-80
2021/12/11 02:37:14;;;;;;;17.85;10.15;;;1.50;77.10;;;0.38;64.21;93729.00;5052183;28;20665;-79
2021/12/11 02:40:13;;;;;;;17.35;9.50;;;1.60;77.20;;;0.37;64.39;93730.78;5038864;28;20314;-79
2021/12/11 02:42:52;;;;;;;19.15;10.13;;;1.50;77.20;;;0.40;64.27;93738.19;5094979;28;20192;-80
2021/12/11 02:45:30;;;;;;;17.52;9.60;;;1.50;77.20;;;0.40;64.38;93740.78;5082740;28;20246;-79
2021/12/11 02:48:12;;;;;;;19.10;10.52;;;1.50;77.30;;;0.43;64.36;93737.91;5055098;28;20613;-79
2021/12/11 02:50:56;;;;;;;18.65;10.50;;;1.50;77.30;;;0.42;64.48;93740.63;5050359;28;20767;-79
2021/12/11 02:53:35;;;;;;;21.17;11.20;;;1.50;77.20;;;0.43;64.44;93748.22;5074319;28;20180;-79
2021/12/11 02:56:17;;;;;;;22.33;11.90;;;1.50;77.30;;;0.43;64.60;93744.84;5055016;28;20196;-80
2021/12/11 02:58:52;;;;;;;21.92;12.02;;;1.60;77.30;;;0.43;64.29;93744.84;5071469;28;20213;-78
2021/12/11 03:01:33;;;;;;;24.30;12.45;;;1.50;77.20;;;0.45;64.18;93755.78;5080263;28;20282;-78
2021/12/11 03:04:24;;;;;;;28.08;13.20;;;1.60;77.30;;;0.47;64.40;93762.41;5071684;28;20297;-79
2021/12/11 03:06:58;;;;;;;23.73;12.63;;;1.60;77.40;;;0.42;64.47;93759.50;5059542;28;20253;-79
2021/12/11 03:09:32;;;;;;;27.83;13.23;;;1.60;77.30;;;0.48;64.62;93764.00;5073444;28;20215;-79
2021/12/11 03:12:04;;;;;;;26.33;13.48;;;1.60;77.40;;;0.50;64.28;93774.19;5075644;28;20215;-79
2021/12/11 03:14:31;;;;;;;25.85;14.00;;;1.60;77.40;;;0.51;64.57;93780.16;5068384;28;20273;-80
2021/12/11 03:17:00;;;;;;;27.70;14.63;;;1.60;77.40;;;0.50;64.56;93773.38;5051883;28;20230;-80
2021/12/11 03:19:31;;;;;;;24.88;13.20;;;1.60;77.40;;;0.51;64.17;93780.16;5049306;28;20220;-80
2021/12/11 03:22:03;;;;;;;24.80;13.48;;;1.60;77.30;;;0.51;64.36;93788.69;5051157;28;20216;-80
2021/12/11 03:24:33;;;;;;;22.95;13.02;;;1.60;77.30;;;0.50;64.47;93789.69;5070122;28;20239;-80
2021/12/11 03:27:02;;;;;;;25.00;13.52;;;1.60;77.30;;;0.52;64.15;93792.09;5036955;28;20282;-80
2021/12/11 03:29:29;;;;;;;28.77;13.55;;;1.60;77.30;;;0.52;64.44;93792.88;5037720;28;20216;-79
2021/12/11 03:31:57;;;;;;;23.60;12.48;;;1.60;77.30;;;0.47;64.57;93792.56;5054457;28;20223;-80
2021/12/11 03:34:29;;;;;;;20.35;11.70;;;1.60;77.30;;;0.53;64.27;93804.03;5072346;28;20256;-80
2021/12/11 03:36:58;;;;;;;23.23;12.02;;;1.60;77.40;;;0.54;64.46;93803.88;5067220;28;20563;-80
2021/12/11 03:39:33;;;;;;;22.48;12.02;;;1.60;77.40;;;0.56;64.26;93814.03;5040019;28;20223;-79
2021/12/11 03:42:13;;;;;;;24.00;12.00;;;1.60;77.40;;;0.57;64.57;93821.59;5053673;28;20291;-79
2021/12/11 03:44:45;;;;;;;21.25;11.68;;;1.60;77.40;;;0.54;64.53;93813.34;5070875;28;20246;-79
2021/12/11 03:47:21;;;;;;;20.42;11.45;;;1.60;77.40;;;0.58;64.16;93819.84;5071268;28;20226;-79
2021/12/11 03:49:49;;;;;;;20.30;11.38;;;1.60;77.40;;;0.57;64.34;93826.75;5072673;28;20215;-79
2021/12/11 03:52:17;;;;;;;23.35;12.15;;;1.60;77.50;;;0.58;64.42;93825.78;5070073;28;20222;-80
2021/12/11 03:54:47;;;;;;;24.27;12.48;;;1.60;77.30;;;0.58;64.41;93827.59;5055787;28;20211;-79
2021/12/11 03:57:20;;;;;;;24.17;12.73;;;1.60;77.40;;;0.59;64.49;93824.03;5054664;28;20196;-79
2021/12/11 03:59:48;;;;;;;24.20;12.05;;;1.60;77.40;;;0.60;64.46;93836.78;5069890;28;20215;-79
2021/12/11 04:02:26;;;;;;;23.38;12.32;;;1.70;77.40;;;0.57;64.50;93828.53;5079143;28;20220;-80
2021/12/11 04:04:58;;;;;;;23.70;12.40;;;1.60;77.40;;;0.60;64.43;93839.34;5075917;28;20219;-79
2021/12/11 04:07:42;;;;;;;24.73;12.30;;;1.70;77.40;;;0.57;64.16;93839.66;5095459;28;20590;-78
2021/12/11 04:10:14;;;;;;;25.70;13.20;;;1.70;77.50;;;0.59;64.06;93850.63;5071581;28;20222;-79
2021/12/11 04:12:42;;;;;;;25.58;12.95;;;1.70;77.40;;;0.59;64.62;93853.22;5052607;28;20269;-79
2021/12/11 04:15:12;;;;;;;25.00;12.93;;;1.70;77.50;;;0.61;64.38;93848.72;5033456;28;20246;-79
2021/12/11 04:17:40;;;;;;;24.27;12.25;;;1.70;77.40;;;0.62;64.69;93855.50;5048315;28;20328;-80
2021/12/11 04:20:13;;;;;;;21.92;11.82;;;1.70;77.50;;;0.64;64.42;93863.06;5038354;28;20199;-80
2021/12/11 04:22:42;;;;;;;26.25;12.07;;;1.70;77.50;;;0.66;64.35;93852.59;5051574;28;20563;-79
2021/12/11 04:25:11;;;;;;;25.88;12.95;;;1.70;77.50;;;0.67;64.62;93841.31;5034508;28;20216;-80
2021/12/11 04:27:39;;;;;;;29.80;14.18;;;1.70;78.30;;;0.62;64.34;93834.03;5067091;28;20604;-80
2021/12/11 04:30:11;;;;;;;30.80;14.52;;;1.70;77.40;;;0.65;64.41;93846.63;5036172;28;20215;-80
2021/12/11 04:32:39;;;;;;;28.90;13.93;;;1.70;77.40;;;0.61;64.39;93842.72;5052519;28;20226;-80
2021/12/11 04:35:10;;;;;;;26.50;13.15;;;1.70;77.40;;;0.63;64.12;93854.53;5062787;28;20653;-80
2021/12/11 04:37:40;;;;;;;25.65;13.02;;;1.70;77.40;;;0.65;64.17;93854.38;5065768;28;20204;-80
2021/12/11 04:40:24;;;;;;;29.60;14.02;;;1.70;77.40;;;0.65;64.31;93856.94;5033639;28;20252;-80
2021/12/11 04:43:04;;;;;;;25.85;12.68;;;1.70;77.50;;;0.62;64.50;93854.69;5049906;28;20192;-79
2021/12/11 04:45:48;;;;;;;26.45;12.93;;;1.70;77.50;;;0.65;64.57;93856.94;5071386;28;20296;-79
2021/12/11 04:48:52;;;;;;;26.73;12.48;;;1.70;77.50;;;0.68;64.16;93866.94;5036847;28;20199;-80
2021/12/11 04:51:28;;;;;;;25.33;12.30;;;1.70;77.50;;;0.66;64.65;93863.72;5050278;28;20226;-79
2021/12/11 05:10:26;;;;;;;26.83;13.60;;;1.80;77.50;;;0.77;64.67;93889.25;5051096;28;20574;-80
2021/12/11 05:12:57;;;;;;;28.70;14.57;;;1.80;77.50;;;0.77;64.48;93897.00;5051657;28;20211;-79
2021/12/11 05:15:36;;;;;;;26.50;13.35;;;1.80;77.50;;;0.78;64.64;93905.53;5037431;28;20215;-80
2021/12/11 05:18:10;;;;;;;28.45;14.48;;;1.80;77.50;;;0.79;64.46;93909.72;5036657;28;20554;-81
2021/12/11 05:20:39;;;;;;;27.58;14.38;;;1.80;77.50;;;0.79;64.37;93913.13;5053158;28;20525;-80
2021/12/11 05:23:06;;;;;;;27.40;14.30;;;1.80;77.50;;;0.80;64.21;93916.50;5052352;28;20237;-81
2021/12/11 05:25:36;;;;;;;28.30;14.23;;;1.80;77.50;;;0.82;64.49;93926.66;5052810;28;20223;-80
2021/12/11 05:28:04;;;;;;;29.73;15.48;;;1.90;77.50;;;0.82;64.51;93931.84;5053049;28;20279;-79
2021/12/11 05:30:41;;;;;;;32.17;15.80;;;1.80;77.40;;;0.83;64.16;93930.88;5069213;28;20219;-80
2021/12/11 05:33:08;;;;;;;33.35;16.90;;;1.90;77.50;;;0.80;64.33;93943.13;5036304;28;20254;-80
2021/12/11 05:35:38;;;;;;;30.88;16.20;;;1.90;77.50;;;0.83;64.17;93936.03;5052818;28;20223;-80
2021/12/11 05:38:08;;;;;;;31.17;16.25;;;1.90;77.60;;;0.82;64.70;93935.25;5038627;28;20207;-80
2021/12/11 05:40:40;;;;;;;30.45;15.65;;;1.90;77.50;;;0.86;64.46;93939.13;5053643;28;20215;-80
2021/12/11 05:43:08;;;;;;;28.35;14.48;;;1.90;77.60;;;0.84;64.39;93938.44;5071714;28;20198;-80
2021/12/11 05:45:38;;;;;;;28.60;14.93;;;1.90;77.50;;;0.86;64.49;93939.13;5054296;28;20714;-80
2021/12/11 05:48:07;;;;;;;28.20;15.05;;;1.90;77.50;;;0.86;64.41;93946.06;5054385;28;20286;-81
2021/12/11 05:50:49;;;;;;;29.77;14.32;;;1.90;77.50;;;0.88;64.52;93938.94;5070375;28;20298;-79
2021/12/11 05:53:20;;;;;;;30.42;15.38;;;1.90;77.50;;;0.88;64.59;93939.78;5054513;28;20285;-80
2021/12/11 05:55:51;;;;;;;31.77;15.95;;;1.90;77.50;;;0.88;64.48;93944.94;5083877;28;20222;-79
2021/12/11 05:58:46;;;;;;;28.70;16.02;;;1.90;77.50;;;0.89;64.50;93940.56;5067842;28;20275;-80
2021/12/11 06:01:31;;;;;;;26.90;15.40;;;1.90;77.50;;;0.85;64.38;93936.69;5052800;28;20307;-81
2021/12/11 06:04:03;;;;;;;25.63;14.10;;;1.90;77.50;;;0.87;64.30;93943.31;5037965;28;20233;-80
2021/12/11 06:06:31;;;;;;;28.85;14.88;;;1.90;77.50;;;0.86;64.55;93952.03;5054380;28;20707;-80
2021/12/11 06:08:59;;;;;;;32.95;15.80;;;1.90;77.50;;;0.86;64.27;93953.81;5070958;28;20685;-80
2021/12/11 06:11:26;;;;;;;30.60;15.07;;;1.90;77.50;;;0.83;64.29;93949.78;5049933;28;20204;-80
2021/12/11 06:13:54;;;;;;;31.98;15.63;;;1.90;77.40;;;0.80;64.20;93952.66;5050784;28;20243;-80
2021/12/11 06:16:21;;;;;;;29.58;15.10;;;1.90;77.40;;;0.77;64.30;93956.34;5050884;28;20196;-80
2021/12/11 06:18:48;;;;;;;30.70;14.82;;;1.90;77.30;;;0.77;64.06;93968.47;5070052;28;20198;-80
2021/12/11 06:21:16;;;;;;;30.20;15.02;;;1.80;77.20;;;0.74;64.33;93961.00;5053287;28;20191;-79
2021/12/11 06:23:44;;;;;;;30.20;14.57;;;1.80;77.30;;;0.72;64.40;93970.69;5087443;28;20234;-79
2021/12/11 06:26:12;;;;;;;29.67;14.90;;;1.80;77.30;;;0.68;64.07;93966.78;5070728;28;20231;-79
2021/12/11 06:28:40;;;;;;;30.70;14.63;;;1.80;77.30;;;0.67;64.06;93975.50;5054107;28;20191;-79
2021/12/11 06:31:17;;;;;;;26.20;13.85;;;1.80;77.30;;;0.68;64.24;93977.13;5054175;28;20207;-79
2021/12/11 06:33:48;;;;;;;26.92;13.18;;;1.80;77.30;;;0.64;64.13;93985.16;5055683;28;20620;-80
2021/12/11 06:36:18;;;;;;;26.08;13.40;;;1.80;77.30;;;0.63;64.37;93991.31;5054235;28;20205;-81
2021/12/11 06:38:50;;;;;;;32.92;15.95;;;1.80;77.30;;;0.61;64.30;93993.22;5053625;28;20666;-79
2021/12/11 06:41:23;;;;;;;35.47;17.33;;;1.70;77.20;;;0.60;64.54;94001.13;5050395;28;20574;-79
2021/12/11 06:43:51;;;;;;;36.63;17.63;;;1.80;77.30;;;0.59;64.12;94004.66;5048572;28;20666;-80
2021/12/11 06:46:19;;;;;;;34.97;17.83;;;1.70;77.30;;;0.59;64.49;94005.47;5067831;28;20201;-80
2021/12/11 06:48:46;;;;;;;39.85;19.30;;;1.70;77.30;;;0.61;64.57;94015.63;5052246;28;20200;-80
2021/12/11 06:51:13;;;;;;;38.78;18.23;;;1.70;77.40;;;0.63;64.56;94017.09;5051469;28;20192;-81
2021/12/11 06:53:50;;;;;;;33.78;16.48;;;1.70;77.50;;;0.63;64.71;94017.09;5051944;28;20641;-80
2021/12/11 06:56:20;;;;;;;33.30;16.15;;;1.70;77.50;;;0.64;64.67;94023.88;5047845;28;20208;-81
2021/12/11 06:58:51;;;;;;;31.85;16.10;;;1.70;77.60;;;0.72;64.83;94027.44;5049228;28;20192;-79
2021/12/11 07:01:22;;;;;;;29.15;15.02;;;1.80;77.60;;;0.75;64.63;94030.53;5057457;28;20208;-79
2021/12/11 07:03:50;;;;;;;34.25;16.08;;;1.80;77.60;;;0.78;64.55;94037.16;5065541;28;20339;-79
2021/12/11 07:06:18;;;;;;;36.28;17.83;;;1.80;77.70;;;0.83;64.42;94036.72;5040642;28;20213;-79
2021/12/11 07:08:48;;;;;;;36.15;16.27;;;1.80;77.60;;;0.83;64.67;94039.28;5052160;28;20241;-80
2021/12/11 07:11:16;;;;;;;31.88;14.75;;;1.80;77.70;;;0.90;64.43;94054.00;5052712;28;20219;-81
2021/12/11 07:13:44;;;;;;;27.20;15.05;;;1.80;77.60;;;0.94;64.46;94049.34;5036030;28;20697;-80
2021/12/11 07:16:12;;;;;;;28.10;14.23;;;1.90;77.70;;;0.99;64.56;94051.47;5069110;28;20676;-79
2021/12/11 07:18:40;;;;;;;28.23;14.57;;;1.90;77.80;;;1.04;64.76;94056.97;5055884;28;20684;-79
2021/12/11 07:21:08;;;;;;;29.83;14.10;;;1.90;77.80;;;1.08;64.65;94060.88;5074036;28;20249;-80
2021/12/11 07:23:40;;;;;;;28.05;15.35;;;2.00;77.90;;;1.13;64.57;94066.38;5057148;28;20223;-80
2021/12/11 07:26:16;;;;;;;27.73;15.20;;;2.00;77.80;;;1.14;64.61;94064.63;5056002;28;20194;-80
2021/12/11 07:28:51;;;;;;;29.95;15.10;;;2.10;77.90;;;1.24;64.36;94080.81;5073273;28;20199;-80
2021/12/11 07:31:19;;;;;;;31.58;16.15;;;2.10;77.90;;;1.28;64.57;94084.69;5056382;28;20248;-80
2021/12/11 07:33:49;;;;;;;39.03;20.90;;;2.10;77.90;;;1.27;64.59;94077.94;5057061;28;20207;-80
2021/12/11 07:36:17;;;;;;;33.65;18.85;;;2.20;77.90;;;1.37;64.29;94085.56;5056107;28;20651;-80
2021/12/11 07:38:44;;;;;;;30.35;17.08;;;2.20;77.90;;;1.41;64.43;94092.00;5057208;28;20258;-80
2021/12/11 07:41:13;;;;;;;33.42;16.35;;;2.30;78.00;;;1.44;64.45;94096.84;5086391;28;20195;-79
2021/12/11 07:43:44;;;;;;;32.05;16.23;;;2.30;78.10;;;1.51;64.48;94102.22;5055532;28;20270;-80
2021/12/11 07:46:16;;;;;;;32.03;16.17;;;2.30;78.00;;;1.55;64.42;94109.50;5056784;28;20199;-80
2021/12/11 07:48:46;;;;;;;31.00;16.40;;;2.40;78.00;;;1.57;64.31;94104.19;5056721;28;20206;-81
2021/12/11 07:51:15;;;;;;;34.30;17.58;;;2.40;78.10;;;1.62;64.50;94112.25;5056587;28;20234;-81
2021/12/11 07:53:43;;;;;;;30.05;16.40;;;2.50;77.90;;;1.65;64.53;94116.31;5039083;28;20219;-81
2021/12/11 07:56:11;;;;;;;31.40;15.88;;;2.50;77.90;;;1.70;64.46;94124.44;5056126;28;20199;-80
2021/12/11 07:58:39;;;;;;;31.10;16.17;;;2.50;77.90;;;1.71;64.65;94128.59;5036165;28;20202;-80
2021/12/11 08:01:09;;;;;;;31.15;15.70;;;2.60;77.90;;;1.75;64.52;94135.09;5056379;28;20198;-81
2021/12/11 08:03:38;;;;;;;36.17;16.13;;;2.60;77.90;;;1.76;64.43;94129.78;5053111;28;20188;-81
2021/12/11 08:06:08;;;;;;;31.17;15.85;;;2.60;77.90;;;1.81;64.53;94134.47;5039103;28;20198;-80
2021/12/11 08:08:37;;;;;;;33.15;16.85;;;2.70;77.90;;;1.84;64.67;94141.91;5072390;28;20278;-80
2021/12/11 08:11:13;;;;;;;35.97;18.08;;;2.70;77.80;;;1.85;64.56;94145.31;5056141;28;20191;-81
2021/12/11 08:13:43;;;;;;;33.42;17.77;;;2.80;77.90;;;1.94;64.42;94148.72;5037436;28;20219;-81
2021/12/11 08:16:14;;;;;;;35.30;18.02;;;2.80;77.90;;;1.99;64.53;94156.81;5055440;28;20625;-81
2021/12/11 08:18:42;;;;;;;59.83;36.75;;;2.80;78.00;;;2.07;64.58;94154.25;5072263;28;20197;-80
2021/12/11 08:21:09;;;;;;;57.08;31.85;;;2.80;78.00;;;2.10;64.39;94156.53;5054618;28;20653;-81
2021/12/11 08:23:43;;;;;;;41.17;24.02;;;2.90;78.10;;;2.21;64.61;94161.41;5053116;28;20199;-80
2021/12/11 08:26:19;;;;;;;37.45;21.20;;;2.90;78.10;;;2.29;64.46;94167.56;5039152;28;20205;-80
2021/12/11 08:28:51;;;;;;;35.80;19.00;;;3.00;78.20;;;2.35;64.51;94164.34;5070841;28;20661;-80
2021/12/11 08:31:20;;;;;;;34.50;18.48;;;3.10;78.20;;;2.40;64.67;94168.06;5054952;28;20196;-82
2021/12/11 08:33:50;;;;;;;34.15;17.15;;;3.10;78.10;;;2.46;64.30;94171.78;5054376;28;20221;-82
2021/12/11 08:36:17;;;;;;;30.70;16.52;;;3.20;78.10;;;2.52;64.25;94175.53;5055501;28;20233;-81
2021/12/11 08:38:45;;;;;;;30.17;16.48;;;3.20;78.00;;;2.56;64.17;94177.63;5072637;28;20202;-81
2021/12/11 08:41:18;;;;;;;29.50;16.88;;;3.30;78.00;;;2.63;64.24;94187.34;5071518;28;20283;-82
2021/12/11 08:43:52;;;;;;;30.92;15.82;;;3.40;78.80;;;2.69;64.14;94179.72;5072656;28;20593;-82
2021/12/11 08:46:27;;;;;;;34.80;16.88;;;3.40;78.00;;;2.77;64.39;94183.28;5073744;28;20199;-81
2021/12/11 08:48:58;;;;;;;34.67;17.77;;;3.50;78.20;;;2.85;64.20;94193.66;5090126;28;20734;-82
2021/12/11 08:51:38;;;;;;;50.60;32.08;;;3.50;78.10;;;2.94;64.13;94202.22;5071790;28;20187;-80
2021/12/11 08:54:08;;;;;;;37.85;22.98;;;3.60;78.00;;;3.00;64.25;94212.78;5051112;28;20247;-82
2021/12/11 08:56:38;;;;;;;33.17;18.88;;;3.70;78.10;;;3.07;64.10;94222.47;5068495;28;20232;-81
2021/12/11 08:59:11;;;;;;;32.45;18.63;;;3.70;78.00;;;3.06;63.90;94221.66;5069749;28;20642;-81
2021/12/11 09:02:13;;;;;;;29.90;17.02;;;3.80;78.00;;;3.13;63.80;94233.00;5068788;28;20203;-82
2021/12/11 09:04:53;;;;;;;28.35;17.10;;;3.80;77.80;;;3.11;63.73;94227.16;5068398;28;20219;-82
2021/12/11 09:07:34;;;;;;;31.48;16.42;;;3.90;77.70;;;3.13;63.99;94238.19;5035912;28;20654;-82
2021/12/11 09:10:24;;;;;;;32.15;16.95;;;3.90;77.60;;;3.13;63.65;94245.94;5054528;28;20219;-81
2021/12/11 09:13:16;;;;;;;30.25;17.80;;;3.90;77.50;;;3.09;63.66;94249.03;5073265;28;20270;-82
2021/12/11 09:15:59;;;;;;;33.65;18.40;;;4.00;77.40;;;3.13;63.81;94253.72;5052061;28;20228;-82
2021/12/11 09:18:34;;;;;;;35.45;19.95;;;4.00;77.40;;;3.19;63.90;94260.84;5050942;28;20200;-82
2021/12/11 09:21:09;;;;;;;38.88;20.90;;;4.00;77.50;;;3.20;63.89;94257.28;5071858;28;20203;-82
2021/12/11 09:23:51;;;;;;;33.35;19.40;;;4.00;77.50;;;3.30;63.91;94264.09;5076737;28;20195;-81
2021/12/11 09:26:33;;;;;;;34.25;18.20;;;4.10;77.50;;;3.30;64.10;94261.50;5044026;28;20210;-81
2021/12/11 09:29:22;;;;;;;32.08;16.80;;;4.10;77.40;;;3.39;63.88;94268.28;5088773;28;20219;-81
2021/12/11 09:32:01;;;;;;;30.30;16.35;;;4.20;77.50;;;3.44;64.19;94268.63;5064134;28;20709;-81
2021/12/11 09:34:38;;;;;;;29.50;16.02;;;4.20;77.50;;;3.48;63.88;94269.91;5051530;28;20232;-82
2021/12/11 09:37:07;;;;;;;31.73;17.48;;;4.20;77.50;;;3.53;64.04;94274.59;5041526;28;20208;-82
2021/12/11 09:39:47;;;;;;;31.85;17.95;;;4.30;77.60;;;3.57;63.88;94270.69;5050645;28;20262;-81
2021/12/11 09:42:14;;;;;;;31.05;17.25;;;4.30;77.50;;;3.61;63.69;94263.41;5066074;28;20211;-81
2021/12/11 09:44:59;;;;;;;34.25;17.58;;;4.30;77.60;;;3.64;63.45;94265.69;5053120;28;20241;-81
2021/12/11 09:47:37;;;;;;;31.95;18.67;;;4.40;77.50;;;3.65;63.45;94268.09;5054597;28;20561;-81
2021/12/11 09:50:13;;;;;;;32.47;17.20;;;4.40;77.30;;;3.69;63.60;94271.19;5070813;28;20227;-81
2021/12/11 09:52:45;;;;;;;31.00;16.50;;;4.40;77.30;;;3.71;63.73;94268.41;5050821;28;20274;-82
2021/12/11 09:55:26;;;;;;;31.10;17.85;;;4.40;77.50;;;3.77;63.41;94273.75;5050618;28;20236;-82
2021/12/11 09:57:57;;;;;;;32.45;17.52;;;4.50;77.40;;;3.83;63.65;94267.09;5067760;28;20200;-82
2021/12/11 10:00:42;;;;;;;32.72;17.27;;;4.50;77.60;;;3.92;63.65;94278.25;5081038;28;20268;-81
2021/12/11 10:03:11;;;;;;;29.77;16.65;;;4.50;77.60;;;3.97;63.85;94275.97;5037459;28;20195;-80
2021/12/11 10:05:56;;;;;;;29.20;15.70;;;4.60;77.80;;;4.01;63.79;94285.84;5038232;28;20230;-81
2021/12/11 10:08:40;;;;;;;30.27;17.20;;;4.70;77.70;;;4.08;63.36;94304.16;5073261;28;20267;-82
2021/12/11 10:11:27;;;;;;;30.25;16.80;;;4.70;77.70;;;4.08;63.44;94295.56;5035331;28;20299;-81
2021/12/11 10:14:08;;;;;;;32.00;16.92;;;4.80;77.60;;;4.12;62.99;94313.22;5069133;28;20254;-82
2021/12/11 10:16:46;;;;;;;30.15;16.50;;;4.80;77.30;;;4.14;63.50;94318.25;5054600;28;20210;-81
2021/12/11 10:19:17;;;;;;;29.52;17.17;;;4.90;77.40;;;4.14;63.47;94313.88;5038001;28;20281;-82
2021/12/11 10:21:53;;;;;;;32.30;17.35;;;4.90;77.40;;;4.15;63.04;94325.88;5052132;28;20204;-80
2021/12/11 10:24:26;;;;;;;31.63;18.45;;;4.90;77.20;;;4.11;63.54;94319.41;5053906;28;20225;-80
2021/12/11 10:26:58;;;;;;;31.95;17.58;;;4.90;77.20;;;4.18;63.50;94331.72;5052722;28;20345;-80
2021/12/11 10:29:26;;;;;;;31.25;16.92;;;4.90;77.30;;;4.16;63.06;94321.47;5052848;28;20225;-80
2021/12/11 10:32:02;;;;;;;31.65;17.58;;;5.00;77.50;;;4.24;63.66;94326.66;5054079;28;20200;-81
2021/12/11 10:34:31;;;;;;;25.52;14.82;;;5.00;77.40;;;4.32;63.65;94326.63;5050329;28;20222;-80
2021/12/11 10:37:11;;;;;;;27.17;15.55;;;5.00;77.50;;;4.37;63.35;94330.50;5052110;28;20253;-82
2021/12/11 10:39:45;;;;;;;30.98;16.30;;;5.10;77.50;;;4.44;63.57;94332.28;5068131;28;20211;-81
2021/12/11 10:42:13;;;;;;;27.80;16.08;;;5.10;77.60;;;4.51;63.66;94329.81;5051788;28;20194;-81
2021/12/11 10:44:47;;;;;;;30.70;17.08;;;5.20;77.70;;;4.57;63.32;94329.13;5050761;28;20314;-82
2021/12/11 10:47:44;;;;;;;27.33;15.88;;;5.20;77.50;;;4.66;63.24;94327.28;5068002;28;20214;-81
2021/12/11 10:50:55;;;;;;;29.95;17.13;;;5.30;77.50;;;4.68;63.26;94333.13;5047521;28;20211;-81
2021/12/11 10:53:29;;;;;;;29.70;17.17;;;5.30;77.10;;;4.74;63.07;94340.25;5039620;28;20215;-81
2021/12/11 10:55:59;;;;;;;27.58;16.25;;;5.40;77.30;;;4.78;62.96;94344.13;5056108;28;20223;-82
2021/12/11 10:58:32;;;;;;;28.90;16.83;;;5.40;77.30;;;4.81;63.00;94341.19;5036750;28;20227;-81
2021/12/11 11:01:09;;;;;;;34.17;19.88;;;5.40;77.30;;;4.85;63.01;94349.47;5070976;28;20239;-81
2021/12/11 11:03:44;;;;;;;32.83;21.15;;;5.50;77.20;;;4.88;62.83;94350.91;5036891;28;20215;-81
2021/12/11 11:06:12;;;;;;;32.03;20.13;;;5.50;77.20;;;4.86;62.68;94351.09;5081286;28;20202;-81
2021/12/11 11:08:40;;;;;;;38.78;22.85;;;5.50;78.00;;;4.91;62.64;94353.97;5089819;28;20647;-81
2021/12/11 11:11:17;;;;;;;44.88;25.13;;;5.60;77.20;;;4.98;62.67;94359.31;5076156;28;20202;-82
2021/12/11 11:13:45;;;;;;;41.15;24.25;;;5.60;77.20;;;5.02;62.87;94367.59;5040941;28;20720;-81